Time;durP1;ratioP1;P1;durP2;ratioP2;P2;SDS_P1;SDS_P2;PMS_P1;PMS_P2;Temp;Humidity;BMP_temperature;BMP_pressure;BME280_temperature;BME280_humidity;BME280_pressure;Samples;Min_cycle;Max_cycle;Signal;HPM_P1;HPM_P2
2023/11/08 00:00:26;;;;;;;10.30;8.05;;;9.50;99.90;;;;;;20719560;28;20396;-41
2023/11/08 00:10:26;;;;;;;11.30;8.27;;;9.50;99.90;;;;;;20719128;28;20033;-42
2023/11/08 00:20:27;;;;;;;13.93;9.40;;;9.50;99.90;;;;;;20724241;28;20050;-41
2023/11/08 00:30:27;;;;;;;19.33;10.73;;;9.40;99.90;;;;;;20737394;28;20042;-42
2023/11/08 00:40:28;;;;;;;11.25;7.82;;;9.40;99.90;;;;;;20734902;28;20041;-42
2023/11/08 00:50:29;;;;;;;17.73;8.85;;;9.40;99.90;;;;;;20725881;28;20073;-43
2023/11/08 01:00:30;;;;;;;12.75;7.80;;;9.30;99.90;;;;;;20709357;28;20271;-42
2023/11/08 01:10:30;;;;;;;11.52;6.65;;;9.30;99.90;;;;;;20718164;28;20041;-43
2023/11/08 01:20:31;;;;;;;10.27;5.70;;;9.30;99.90;;;;;;20709086;28;20131;-42
2023/11/08 01:30:33;;;;;;;8.88;5.43;;;9.40;99.90;;;;;;20709989;28;20038;-42
2023/11/08 01:40:33;;;;;;;10.50;5.70;;;9.30;99.90;;;;;;20701825;28;20045;-42
2023/11/08 01:50:34;;;;;;;8.88;5.45;;;9.20;99.90;;;;;;20710462;28;20551;-41
2023/11/08 02:00:37;;;;;;;8.45;5.53;;;9.20;99.90;;;;;;20698450;28;20033;-42
2023/11/08 02:10:38;;;;;;;11.02;6.40;;;9.30;99.90;;;;;;20701732;28;20631;-42
2023/11/08 02:20:38;;;;;;;13.82;7.40;;;9.20;99.90;;;;;;20708924;28;20045;-42
2023/11/08 02:30:39;;;;;;;14.68;7.28;;;9.20;99.90;;;;;;20706797;28;20030;-41
2023/11/08 02:40:40;;;;;;;13.50;6.95;;;9.20;99.90;;;;;;20710670;28;20069;-43
2023/11/08 02:50:42;;;;;;;14.05;7.03;;;9.10;99.90;;;;;;20706148;28;20359;-42
2023/11/08 03:00:42;;;;;;;10.85;6.43;;;9.00;99.90;;;;;;20702066;28;20128;-43
2023/11/08 03:10:43;;;;;;;18.00;7.90;;;9.00;99.90;;;;;;20699857;28;20095;-43
2023/11/08 03:20:43;;;;;;;17.33;7.40;;;9.10;99.90;;;;;;20704309;28;20049;-42
2023/11/08 03:30:45;;;;;;;13.55;7.57;;;9.00;99.90;;;;;;20696271;28;20376;-42
2023/11/08 03:40:46;;;;;;;15.15;6.78;;;8.90;99.90;;;;;;20681486;28;20109;-43
2023/11/08 03:50:47;;;;;;;14.73;6.80;;;9.00;99.90;;;;;;20699227;28;20477;-43
2023/11/08 04:00:47;;;;;;;15.40;6.05;;;8.90;99.90;;;;;;20711707;28;20046;-43
2023/11/08 04:10:49;;;;;;;10.23;5.03;;;8.90;99.90;;;;;;20716677;28;20033;-42
2023/11/08 04:20:49;;;;;;;11.70;5.38;;;8.80;99.90;;;;;;20720962;28;20042;-43
2023/11/08 04:30:50;;;;;;;18.20;6.53;;;8.80;99.90;;;;;;20716407;28;20460;-40
2023/11/08 04:40:52;;;;;;;18.05;7.03;;;8.70;99.90;;;;;;20715192;28;20045;-41
2023/11/08 04:50:53;;;;;;;12.80;6.90;;;8.80;99.90;;;;;;20710434;28;20034;-41
2023/11/08 05:00:54;;;;;;;15.18;6.20;;;8.80;99.90;;;;;;20717369;28;20151;-40
2023/11/08 05:10:54;;;;;;;10.65;4.65;;;8.90;99.90;;;;;;20716772;28;20042;-42
2023/11/08 05:20:55;;;;;;;10.63;3.90;;;8.80;99.90;;;;;;20718860;28;20426;-42
2023/11/08 05:30:55;;;;;;;10.38;4.03;;;8.80;99.90;;;;;;20713278;28;20108;-41
2023/11/08 05:40:56;;;;;;;11.32;3.88;;;8.80;99.90;;;;;;20709039;28;20057;-41
2023/11/08 05:50:56;;;;;;;13.23;4.03;;;8.80;99.90;;;;;;20709180;28;20693;-42
2023/11/08 06:00:57;;;;;;;9.50;2.50;;;8.80;99.90;;;;;;20716281;28;20121;-42
2023/11/08 06:10:58;;;;;;;16.00;2.85;;;8.80;99.90;;;;;;20707484;28;20060;-42
2023/11/08 06:20:59;;;;;;;6.35;2.80;;;8.70;99.90;;;;;;20705383;28;20495;-41
2023/11/08 06:30:59;;;;;;;11.32;2.90;;;8.60;99.90;;;;;;20705575;28;20049;-41
2023/11/08 06:41:00;;;;;;;12.43;3.60;;;8.60;99.90;;;;;;20722775;28;20155;-41
2023/11/08 06:51:01;;;;;;;7.32;3.40;;;8.60;99.90;;;;;;20734416;28;20469;-42
2023/11/08 07:01:05;;;;;;;10.63;3.97;;;8.50;99.90;;;;;;20730056;28;20049;-42
2023/11/08 07:11:06;;;;;;;11.90;3.90;;;8.50;99.90;;;;;;20742081;28;20045;-42
2023/11/08 07:21:06;;;;;;;6.75;3.20;;;8.50;99.90;;;;;;20739313;28;20042;-42
2023/11/08 07:31:08;;;;;;;8.48;3.15;;;8.50;99.90;;;;;;20736777;28;20046;-42
2023/11/08 07:41:09;;;;;;;6.57;3.25;;;8.50;99.90;;;;;;20731672;28;20050;-41
2023/11/08 07:51:09;;;;;;;7.47;2.97;;;8.50;99.90;;;;;;20729931;28;20037;-41
2023/11/08 08:01:11;;;;;;;10.73;3.08;;;8.50;99.90;;;;;;20733364;28;20128;-41
2023/11/08 08:11:12;;;;;;;8.77;3.33;;;8.60;99.90;;;;;;20729284;28;20164;-41
2023/11/08 08:21:13;;;;;;;6.55;3.10;;;8.90;99.90;;;;;;20725824;28;20045;-41
2023/11/08 08:31:14;;;;;;;7.85;3.20;;;8.90;99.90;;;;;;20729278;28;20045;-41
2023/11/08 08:41:14;;;;;;;5.63;2.90;;;9.00;99.90;;;;;;20730628;28;20049;-41
2023/11/08 08:51:15;;;;;;;7.45;2.92;;;8.90;99.90;;;;;;20740160;28;20229;-43
2023/11/08 09:01:18;;;;;;;8.20;3.40;;;9.10;99.90;;;;;;20740848;28;20042;-41
2023/11/08 09:11:19;;;;;;;7.82;3.35;;;9.10;99.90;;;;;;20740455;28;20124;-41
2023/11/08 09:21:22;;;;;;;8.45;3.33;;;9.20;99.70;;;;;;20748425;28;20042;-44
2023/11/08 09:31:23;;;;;;;6.80;2.78;;;9.40;89.70;;;;;;20708804;28;20045;-41
2023/11/08 09:41:24;;;;;;;8.25;3.13;;;9.50;90.00;;;;;;20731763;28;20041;-40
2023/11/08 09:51:25;;;;;;;10.10;3.53;;;9.60;90.20;;;;;;20743040;28;20050;-41
2023/11/08 10:01:29;;;;;;;13.35;3.20;;;9.60;83.10;;;;;;20735564;28;20045;-41
2023/11/08 10:11:31;;;;;;;7.57;2.60;;;9.70;79.30;;;;;;20738825;28;20112;-41
2023/11/08 10:21:31;;;;;;;8.25;3.30;;;9.70;86.30;;;;;;20739019;28;20045;-42
2023/11/08 10:31:38;;;;;;;9.73;3.10;;;9.80;85.80;;;;;;20735911;28;20226;-42
2023/11/08 10:41:43;;;;;;;12.35;3.42;;;9.90;60.00;;;;;;20719271;28;20050;-42
2023/11/08 10:51:44;;;;;;;11.00;2.92;;;10.10;37.90;;;;;;20655187;28;20463;-42
2023/11/08 11:01:46;;;;;;;6.55;2.28;;;10.20;19.00;;;;;;20708255;28;20766;-42
2023/11/08 11:11:56;;;;;;;8.20;2.20;;;10.50;6.30;;;;;;20738742;28;20036;-42
2023/11/08 11:22:05;;;;;;;10.75;2.47;;;10.70;1.00;;;;;;20743654;28;20103;-42
2023/11/08 11:32:34;;;;;;;12.82;2.67;;;10.70;1.00;;;;;;20741257;28;20187;-41
2023/11/08 11:42:35;;;;;;;6.30;2.17;;;10.90;1.00;;;;;;20750500;28;20076;-42
2023/11/08 11:52:36;;;;;;;10.13;2.42;;;10.80;1.00;;;;;;20733393;28;20119;-42
2023/11/08 12:02:37;;;;;;;7.30;2.40;;;10.90;1.00;;;;;;20731801;28;20080;-42
2023/11/08 12:12:43;;;;;;;7.10;2.33;;;11.00;1.00;;;;;;20726617;28;20092;-41
2023/11/08 12:22:50;;;;;;;9.07;2.58;;;11.00;1.00;;;;;;20751651;28;20033;-41
2023/11/08 12:32:51;;;;;;;9.13;2.83;;;11.00;1.00;;;;;;20743462;28;20056;-41
2023/11/08 12:42:51;;;;;;;5.18;2.83;;;10.90;1.00;;;;;;20743215;28;20041;-41
2023/11/08 12:52:52;;;;;;;8.75;3.00;;;10.90;1.00;;;;;;20749413;28;20137;-41
2023/11/08 13:02:56;;;;;;;6.32;2.85;;;10.80;1.00;;;;;;20744017;28;20417;-41
2023/11/08 13:12:57;;;;;;;10.27;3.70;;;10.70;1.00;;;;;;20749966;28;20094;-41
2023/11/08 13:22:57;;;;;;;7.95;3.20;;;10.70;1.00;;;;;;20758305;28;20548;-41
2023/11/08 13:32:59;;;;;;;8.63;2.30;;;10.80;1.00;;;;;;20754880;28;20105;-41
2023/11/08 13:42:59;;;;;;;7.78;2.53;;;10.80;2.30;;;;;;20751855;28;20029;-41
2023/11/08 13:53:00;;;;;;;9.43;2.47;;;10.60;6.60;;;;;;20748415;28;20056;-42
2023/11/08 14:03:01;;;;;;;7.95;2.60;;;10.40;14.10;;;;;;20741730;28;20145;-41
2023/11/08 14:13:03;;;;;;;7.47;2.83;;;10.20;25.20;;;;;;20734990;28;20614;-42
2023/11/08 14:23:03;;;;;;;5.25;2.47;;;10.10;31.30;;;;;;20740313;28;20492;-42
2023/11/08 14:33:04;;;;;;;6.00;2.30;;;10.20;39.50;;;;;;20737144;28;20123;-42
2023/11/08 14:43:04;;;;;;;8.25;4.15;;;10.30;31.00;;;;;;20736660;28;20109;-42
2023/11/08 14:53:05;;;;;;;8.15;2.67;;;10.20;46.80;;;;;;20742377;28;20467;-42
2023/11/08 15:03:05;;;;;;;5.95;2.33;;;10.00;81.10;;;;;;20737000;28;20041;-43
2023/11/08 15:13:06;;;;;;;8.70;2.38;;;9.70;99.90;;;;;;20735704;28;20119;-43
2023/11/08 15:23:07;;;;;;;5.88;2.75;;;9.60;99.90;;;;;;20738996;28;20041;-42
2023/11/08 15:33:07;;;;;;;8.50;4.53;;;9.60;99.90;;;;;;20737736;28;20141;-42
2023/11/08 15:43:08;;;;;;;10.25;3.30;;;9.50;99.90;;;;;;20751208;28;20377;-41
2023/11/08 15:53:09;;;;;;;6.22;3.05;;;9.50;99.90;;;;;;20748527;28;20153;-42
2023/11/08 16:03:09;;;;;;;10.02;3.38;;;9.50;99.90;;;;;;20762031;28;20052;-41
2023/11/08 16:13:10;;;;;;;7.80;3.60;;;9.50;99.90;;;;;;20755851;28;20409;-41
2023/11/08 16:23:10;;;;;;;6.53;3.40;;;9.50;99.90;;;;;;20754281;28;20041;-41
2023/11/08 16:33:11;;;;;;;4.68;3.20;;;9.50;99.90;;;;;;20741487;28;20053;-40
2023/11/08 16:43:12;;;;;;;6.65;3.40;;;9.50;99.90;;;;;;20754921;28;20133;-43
2023/11/08 16:53:13;;;;;;;5.78;3.53;;;9.60;99.90;;;;;;20748775;28;20049;-42
2023/11/08 17:03:16;;;;;;;7.30;3.60;;;9.60;99.90;;;;;;20754640;28;20045;-41
2023/11/08 17:13:17;;;;;;;6.70;3.58;;;9.70;99.90;;;;;;20763754;28;20041;-42
2023/11/08 17:23:17;;;;;;;5.60;3.70;;;9.70;99.90;;;;;;20766349;28;20048;-41
2023/11/08 17:33:18;;;;;;;6.63;3.90;;;9.80;99.90;;;;;;20759278;28;20045;-42
2023/11/08 17:43:20;;;;;;;7.25;4.45;;;9.80;99.90;;;;;;20745854;28;20096;-42
2023/11/08 17:53:20;;;;;;;5.70;3.92;;;9.80;99.90;;;;;;20741306;28;20243;-40
2023/11/08 18:03:21;;;;;;;8.23;4.80;;;9.80;99.90;;;;;;20748194;28;20065;-41
2023/11/08 18:13:22;;;;;;;8.48;4.30;;;9.90;99.90;;;;;;20747871;28;20132;-41
2023/11/08 18:23:22;;;;;;;7.45;4.63;;;10.00;99.90;;;;;;20749248;28;20497;-42
2023/11/08 18:33:24;;;;;;;8.15;4.75;;;10.00;99.90;;;;;;20745078;28;20115;-42
2023/11/08 18:43:26;;;;;;;6.00;4.57;;;10.20;99.90;;;;;;20737386;28;20034;-41
2023/11/08 18:53:27;;;;;;;8.50;5.10;;;10.20;99.90;;;;;;20738392;28;20544;-42
2023/11/08 19:03:28;;;;;;;5.30;3.97;;;10.30;99.90;;;;;;20747269;28;20048;-42
2023/11/08 19:13:31;;;;;;;6.28;3.80;;;10.30;99.90;;;;;;20745268;28;20037;-42
2023/11/08 19:23:32;;;;;;;6.65;4.03;;;10.40;99.90;;;;;;20741016;28;20038;-42
2023/11/08 19:33:32;;;;;;;6.63;3.97;;;10.40;99.90;;;;;;20736033;28;20088;-43
2023/11/08 19:43:33;;;;;;;7.23;5.33;;;10.40;99.90;;;;;;20742413;28;20041;-42
2023/11/08 19:53:33;;;;;;;8.10;4.30;;;10.50;99.90;;;;;;20746233;28;20462;-42
2023/11/08 20:03:34;;;;;;;7.53;4.20;;;10.50;99.90;;;;;;20745170;28;20026;-43
2023/11/08 20:13:34;;;;;;;5.65;4.05;;;10.50;99.90;;;;;;20748742;28;20485;-42
2023/11/08 20:23:38;;;;;;;5.50;4.20;;;10.50;99.90;;;;;;20743402;28;20041;-42
2023/11/08 20:33:39;;;;;;;5.53;3.67;;;10.50;99.90;;;;;;20745654;28;20038;-42
2023/11/08 20:43:41;;;;;;;5.15;3.50;;;10.60;99.90;;;;;;20758760;28;20045;-42
2023/11/08 20:53:42;;;;;;;5.40;3.30;;;10.60;99.90;;;;;;20762008;28;20133;-43
2023/11/08 21:03:42;;;;;;;4.55;3.42;;;10.50;99.90;;;;;;20753294;28;20037;-43
2023/11/08 21:13:43;;;;;;;4.47;3.08;;;10.60;99.90;;;;;;20760129;28;20049;-42
2023/11/08 21:23:44;;;;;;;6.25;2.42;;;10.60;99.90;;;;;;20756981;28;20029;-43
2023/11/08 21:33:44;;;;;;;4.55;2.47;;;10.70;99.90;;;;;;20756993;28;20041;-43
2023/11/08 21:43:45;;;;;;;4.10;2.47;;;10.70;99.90;;;;;;20758780;28;20040;-43
2023/11/08 21:53:46;;;;;;;4.25;2.17;;;10.70;99.90;;;;;;20751268;28;20382;-43
2023/11/08 22:03:47;;;;;;;4.22;2.63;;;10.60;99.90;;;;;;20752840;28;20260;-42
2023/11/08 22:13:48;;;;;;;4.97;2.63;;;10.70;99.90;;;;;;20756480;28;20492;-43
2023/11/08 22:23:49;;;;;;;4.07;2.28;;;10.70;99.90;;;;;;20745859;28;20147;-43
2023/11/08 22:33:50;;;;;;;4.35;3.00;;;10.70;99.90;;;;;;20736115;28;20070;-45
2023/11/08 22:43:50;;;;;;;4.53;2.30;;;10.80;99.90;;;;;;20736915;28;20034;-42
2023/11/08 22:53:53;;;;;;;4.22;2.08;;;10.70;99.90;;;;;;20739452;28;20164;-43
2023/11/08 23:03:53;;;;;;;3.75;2.22;;;10.80;99.90;;;;;;20742441;28;20385;-43
2023/11/08 23:13:54;;;;;;;4.55;2.53;;;10.80;99.90;;;;;;20748971;28;20292;-43
2023/11/08 23:23:54;;;;;;;2.87;2.03;;;10.80;99.90;;;;;;20736988;28;20076;-43
2023/11/08 23:33:55;;;;;;;3.25;2.00;;;10.70;99.90;;;;;;20734622;28;20049;-43
2023/11/08 23:43:56;;;;;;;4.20;2.10;;;10.70;99.90;;;;;;20733725;28;20202;-43
2023/11/08 23:53:56;;;;;;;3.50;2.22;;;10.70;99.90;;;;;;20731848;28;20049;-43
